Pisgah, Illinois
Current Conditions -  °F | °C
As of 8:15 PM on Saturday 22 Nov 2014 (Local Time) from KIJX Reporting Station
Overcast Overcast  
Wind Chill: 54°   Ceiling: 1300
Heat Index: 54°   Visibility: 10mi
Dew Point: 49°   Wind: 9mph
Humidity: 85%   Direction: 170°S
Pressure: 29.88"   Gusts: NA
Location:  39.7413°N, 90.2138°W
Report Text: KIJX 230215Z AUTO 17008KT 10SM BKN013 OVC018 12/10 A2988 RMK AO2 T01210096
Loading
Personal Weather Stations






























Interactive Weather Map New forecast layout! Learn more

10-Day Weather Forecast

Advertisements
Track Severe Weather on mobile